OAL063 RJEC-UHPP
Flight info
| Callsign | OAL063 |
|---|---|
| Flight time | 4h 24m |
| Altitude | 15000 |
| Route | ANIMO PAKLI MOROG UMOLA NEDSU USTBOLSHERETSK SAMIK YELIZOVO |
| Aircraft | C208/L-SDFGR/C |
Departure
| Time | 2026-05-04 10:32 |
|---|---|
| Airport | Asahikawa Airport (RJEC) |
Arrival
| Time | 2026-05-04 14:57 |
|---|---|
| Airport | Yelizovo Airport (UHPP) |
| Time | Latitude | Longitude | Altitude | Speed | Heading |
|---|---|---|---|---|---|
| 2026-05-04 10:25 | 43.67174 | 142.45138 | 691 ft | 0 kts | 336° |
| 2026-05-04 10:30 | 43.67175 | 142.45129 | 686 ft | 3 kts | 215° |
| 2026-05-04 10:30 | 43.67138 | 142.45115 | 691 ft | 11 kts | 239° |
| 2026-05-04 10:30 | 43.67096 | 142.44997 | 694 ft | 17 kts | 246° |
| 2026-05-04 10:31 | 43.67030 | 142.44835 | 697 ft | 20 kts | 255° |
| 2026-05-04 10:31 | 43.67162 | 142.44689 | 693 ft | 41 kts | 335° |
| 2026-05-04 10:32 | 43.70563 | 142.44455 | 1710 ft | 110 kts | 54° |
| 2026-05-04 10:33 | 43.70843 | 142.45058 | 1881 ft | 110 kts | 55° |
| 2026-05-04 10:33 | 43.71259 | 142.45966 | 2123 ft | 115 kts | 57° |
| 2026-05-04 10:33 | 43.71714 | 142.46884 | 2353 ft | 118 kts | 55° |
| 2026-05-04 10:33 | 43.72055 | 142.47948 | 2544 ft | 124 kts | 66° |
| 2026-05-04 10:34 | 43.72576 | 142.48925 | 2729 ft | 131 kts | 40° |
| 2026-05-04 10:34 | 43.73279 | 142.49540 | 2888 ft | 136 kts | 32° |
| 2026-05-04 10:34 | 43.74106 | 142.50223 | 3045 ft | 141 kts | 32° |
| 2026-05-04 10:34 | 43.74970 | 142.50919 | 3209 ft | 146 kts | 31° |
| 2026-05-04 10:35 | 43.75863 | 142.51620 | 3371 ft | 150 kts | 31° |
| 2026-05-04 10:35 | 43.76781 | 142.52336 | 3533 ft | 153 kts | 30° |
| 2026-05-04 10:35 | 43.77705 | 142.53065 | 3687 ft | 156 kts | 31° |
| 2026-05-04 10:35 | 43.78658 | 142.53810 | 3847 ft | 159 kts | 30° |
| 2026-05-04 10:36 | 43.79630 | 142.54577 | 4011 ft | 161 kts | 31° |
| 2026-05-04 10:36 | 43.80609 | 142.55344 | 4170 ft | 162 kts | 30° |
| 2026-05-04 10:36 | 43.81595 | 142.56116 | 4322 ft | 163 kts | 30° |
| 2026-05-04 10:36 | 43.82586 | 142.56899 | 4474 ft | 164 kts | 30° |
| 2026-05-04 10:37 | 43.83581 | 142.57684 | 4627 ft | 166 kts | 30° |
| 2026-05-04 10:37 | 43.84588 | 142.58478 | 4787 ft | 167 kts | 30° |
| 2026-05-04 10:37 | 43.85604 | 142.59279 | 4930 ft | 168 kts | 30° |
| 2026-05-04 10:37 | 43.86621 | 142.60079 | 5089 ft | 168 kts | 29° |
| 2026-05-04 10:39 | 43.92824 | 142.64971 | 6014 ft | 173 kts | 28° |
| 2026-05-04 10:39 | 43.93880 | 142.65802 | 6151 ft | 175 kts | 28° |
| 2026-05-04 10:39 | 43.94926 | 142.66631 | 6296 ft | 172 kts | 28° |
| 2026-05-04 10:40 | 43.95966 | 142.67455 | 6453 ft | 173 kts | 27° |
| 2026-05-04 10:40 | 43.97015 | 142.68286 | 6603 ft | 174 kts | 27° |
| 2026-05-04 10:40 | 43.98071 | 142.69122 | 6747 ft | 174 kts | 27° |
| 2026-05-04 10:40 | 43.99127 | 142.69957 | 6916 ft | 176 kts | 27° |
| 2026-05-04 10:41 | 44.00193 | 142.70801 | 7057 ft | 177 kts | 27° |
| 2026-05-04 10:41 | 44.01263 | 142.71649 | 7203 ft | 176 kts | 27° |
| 2026-05-04 10:41 | 44.02323 | 142.72491 | 7357 ft | 176 kts | 27° |
| 2026-05-04 10:41 | 44.03395 | 142.73339 | 7513 ft | 178 kts | 26° |
| 2026-05-04 10:42 | 44.04476 | 142.74197 | 7664 ft | 178 kts | 26° |
| 2026-05-04 10:42 | 44.05551 | 142.75051 | 7824 ft | 179 kts | 26° |
| 2026-05-04 10:42 | 44.06632 | 142.75910 | 7977 ft | 178 kts | 26° |
| 2026-05-04 10:42 | 44.07707 | 142.76764 | 8128 ft | 179 kts | 25° |
| 2026-05-04 10:43 | 44.08793 | 142.77625 | 8285 ft | 180 kts | 25° |
| 2026-05-04 10:44 | 44.16499 | 142.83760 | 9397 ft | 186 kts | 23° |
| 2026-05-04 10:45 | 44.17629 | 142.84662 | 9545 ft | 187 kts | 24° |
| 2026-05-04 10:45 | 44.18763 | 142.85566 | 9698 ft | 189 kts | 23° |
| 2026-05-04 10:45 | 44.19904 | 142.86476 | 9840 ft | 190 kts | 23° |
| 2026-05-04 10:45 | 44.21056 | 142.87398 | 9982 ft | 190 kts | 23° |
| 2026-05-04 10:46 | 44.22192 | 142.88308 | 10136 ft | 188 kts | 23° |
| 2026-05-04 10:46 | 44.23321 | 142.89210 | 10277 ft | 186 kts | 23° |
| 2026-05-04 10:46 | 44.24433 | 142.90101 | 10414 ft | 183 kts | 22° |
| 2026-05-04 10:46 | 44.25531 | 142.90976 | 10565 ft | 182 kts | 22° |
| 2026-05-04 10:47 | 44.26628 | 142.91852 | 10710 ft | 181 kts | 22° |
| 2026-05-04 10:47 | 44.27712 | 142.92723 | 10853 ft | 180 kts | 22° |
| 2026-05-04 10:47 | 44.28785 | 142.93581 | 10998 ft | 180 kts | 22° |
| 2026-05-04 10:47 | 44.29887 | 142.94464 | 11156 ft | 180 kts | 22° |
| 2026-05-04 10:49 | 44.37520 | 143.00591 | 12226 ft | 180 kts | 21° |
| 2026-05-04 10:49 | 44.38600 | 143.01459 | 12374 ft | 179 kts | 21° |
| 2026-05-04 10:50 | 44.39658 | 143.02311 | 12536 ft | 177 kts | 21° |
| 2026-05-04 10:51 | 44.47315 | 143.08481 | 13635 ft | 185 kts | 21° |
| 2026-05-04 10:52 | 44.48433 | 143.09384 | 13780 ft | 186 kts | 21° |
| 2026-05-04 10:52 | 44.49556 | 143.10291 | 13925 ft | 186 kts | 21° |
| 2026-05-04 10:52 | 44.50677 | 143.11198 | 14062 ft | 186 kts | 21° |
| 2026-05-04 10:54 | 44.58461 | 143.17496 | 15074 ft | 187 kts | 20° |
| 2026-05-04 10:54 | 44.59596 | 143.18413 | 15105 ft | 195 kts | 21° |
| 2026-05-04 10:56 | 44.68606 | 143.25738 | 15110 ft | 223 kts | 22° |
| 2026-05-04 10:56 | 44.69947 | 143.26830 | 15106 ft | 223 kts | 22° |
| 2026-05-04 10:56 | 44.71284 | 143.27920 | 15106 ft | 222 kts | 22° |
| 2026-05-04 10:57 | 44.72618 | 143.29008 | 15103 ft | 222 kts | 22° |
| 2026-05-04 10:57 | 44.73952 | 143.30095 | 15103 ft | 221 kts | 22° |
| 2026-05-04 10:57 | 44.75285 | 143.31182 | 15096 ft | 221 kts | 22° |
| 2026-05-04 10:57 | 44.76611 | 143.32266 | 15096 ft | 221 kts | 22° |
| 2026-05-04 10:58 | 44.77925 | 143.33339 | 15099 ft | 221 kts | 21° |
| 2026-05-04 10:58 | 44.79254 | 143.34423 | 15098 ft | 221 kts | 22° |
| 2026-05-04 10:58 | 44.80584 | 143.35512 | 15092 ft | 221 kts | 21° |
| 2026-05-04 10:58 | 44.81916 | 143.36602 | 15093 ft | 222 kts | 21° |
| 2026-05-04 10:59 | 44.83251 | 143.37694 | 15089 ft | 222 kts | 21° |
| 2026-05-04 10:59 | 44.84587 | 143.38789 | 15091 ft | 222 kts | 21° |
| 2026-05-04 10:59 | 44.85923 | 143.39884 | 15093 ft | 222 kts | 21° |
| 2026-05-04 10:59 | 44.87259 | 143.40979 | 15094 ft | 222 kts | 21° |
| 2026-05-04 11:00 | 44.88591 | 143.42072 | 15098 ft | 221 kts | 21° |
| 2026-05-04 11:01 | 44.97898 | 143.49723 | 15104 ft | 223 kts | 21° |
| 2026-05-04 11:02 | 44.99239 | 143.50829 | 15105 ft | 223 kts | 21° |
| 2026-05-04 11:02 | 45.00579 | 143.51934 | 15099 ft | 223 kts | 21° |
| 2026-05-04 11:05 | 45.19378 | 143.67496 | 15099 ft | 222 kts | 21° |
| 2026-05-04 11:06 | 45.20696 | 143.68657 | 15504 ft | 222 kts | 27° |
| 2026-05-04 11:06 | 45.22009 | 143.69838 | 15386 ft | 224 kts | 27° |
| 2026-05-04 11:06 | 45.23340 | 143.71005 | 15265 ft | 226 kts | 27° |
| 2026-05-04 11:06 | 45.24674 | 143.72193 | 15148 ft | 226 kts | 27° |
| 2026-05-04 11:08 | 45.33577 | 143.80193 | 15083 ft | 211 kts | 28° |
| 2026-05-04 11:10 | 45.42204 | 143.87973 | 15084 ft | 209 kts | 27° |
| 2026-05-04 11:12 | 45.50827 | 143.95773 | 15088 ft | 209 kts | 27° |
| 2026-05-04 11:12 | 45.52054 | 143.96890 | 15090 ft | 209 kts | 27° |
| 2026-05-04 11:12 | 45.53281 | 143.97997 | 15090 ft | 209 kts | 27° |
| 2026-05-04 11:12 | 45.54507 | 143.99105 | 15091 ft | 208 kts | 27° |
| 2026-05-04 11:13 | 45.55726 | 144.00215 | 15088 ft | 208 kts | 28° |
| 2026-05-04 11:13 | 45.56943 | 144.01332 | 15091 ft | 208 kts | 28° |
| 2026-05-04 11:13 | 45.58164 | 144.02432 | 15092 ft | 207 kts | 27° |
| 2026-05-04 11:13 | 45.59381 | 144.03529 | 15094 ft | 207 kts | 27° |
| 2026-05-04 11:14 | 45.60596 | 144.04639 | 15093 ft | 208 kts | 27° |
| 2026-05-04 11:14 | 45.61813 | 144.05753 | 15096 ft | 207 kts | 27° |
| 2026-05-04 11:14 | 45.63015 | 144.06842 | 15096 ft | 207 kts | 27° |
| 2026-05-04 11:16 | 45.71516 | 144.14607 | 15097 ft | 206 kts | 27° |
| 2026-05-04 11:16 | 45.72723 | 144.15703 | 15100 ft | 205 kts | 28° |
| 2026-05-04 11:16 | 45.73921 | 144.16809 | 15099 ft | 205 kts | 27° |
| 2026-05-04 11:17 | 45.75122 | 144.17905 | 15100 ft | 204 kts | 26° |
| 2026-05-04 11:17 | 45.76320 | 144.19003 | 15100 ft | 204 kts | 26° |
| 2026-05-04 11:19 | 45.84666 | 144.26659 | 15095 ft | 203 kts | 26° |
| 2026-05-04 11:19 | 45.85855 | 144.27753 | 15099 ft | 203 kts | 27° |
| 2026-05-04 11:19 | 45.87042 | 144.28847 | 15096 ft | 203 kts | 27° |
| 2026-05-04 11:19 | 45.88228 | 144.29943 | 15096 ft | 202 kts | 26° |
| 2026-05-04 11:20 | 45.89413 | 144.31036 | 15098 ft | 202 kts | 26° |
| 2026-05-04 11:20 | 45.90604 | 144.32121 | 15100 ft | 203 kts | 26° |
| 2026-05-04 11:20 | 45.91775 | 144.33202 | 15100 ft | 202 kts | 27° |
| 2026-05-04 11:20 | 45.92957 | 144.34290 | 15097 ft | 202 kts | 27° |
| 2026-05-04 11:22 | 46.00794 | 144.41524 | 15103 ft | 201 kts | 27° |
| 2026-05-04 11:22 | 46.01969 | 144.42624 | 15104 ft | 201 kts | 26° |
| 2026-05-04 11:23 | 46.03141 | 144.43730 | 15103 ft | 202 kts | 28° |
| 2026-05-04 11:23 | 46.04322 | 144.44817 | 15106 ft | 201 kts | 26° |
| 2026-05-04 11:24 | 46.11394 | 144.51377 | 15101 ft | 201 kts | 27° |
| 2026-05-04 11:25 | 46.12554 | 144.52453 | 15104 ft | 201 kts | 27° |
| 2026-05-04 11:25 | 46.13728 | 144.53545 | 15104 ft | 201 kts | 27° |
| 2026-05-04 11:25 | 46.14897 | 144.54647 | 15103 ft | 201 kts | 27° |
| 2026-05-04 11:26 | 46.17239 | 144.56824 | 15103 ft | 200 kts | 27° |
| 2026-05-04 11:27 | 46.25397 | 144.64443 | 15102 ft | 199 kts | 28° |
| 2026-05-04 11:28 | 46.26561 | 144.65524 | 15098 ft | 199 kts | 29° |
| 2026-05-04 11:28 | 46.27723 | 144.66613 | 15096 ft | 199 kts | 30° |
| 2026-05-04 11:28 | 46.28882 | 144.67709 | 15097 ft | 199 kts | 29° |
| 2026-05-04 11:28 | 46.30041 | 144.68799 | 15100 ft | 198 kts | 29° |
| 2026-05-04 11:29 | 46.31186 | 144.69866 | 15098 ft | 199 kts | 29° |
| 2026-05-04 11:29 | 46.32345 | 144.70952 | 15099 ft | 199 kts | 29° |
| 2026-05-04 11:29 | 46.33505 | 144.72048 | 15094 ft | 199 kts | 29° |
| 2026-05-04 11:29 | 46.34661 | 144.73138 | 15096 ft | 198 kts | 29° |
| 2026-05-04 11:31 | 46.42768 | 144.80769 | 15102 ft | 198 kts | 29° |
| 2026-05-04 11:33 | 46.50837 | 144.88394 | 15100 ft | 198 kts | 30° |
| 2026-05-04 11:33 | 46.51988 | 144.89483 | 15102 ft | 197 kts | 30° |
| 2026-05-04 11:33 | 46.53139 | 144.90568 | 15104 ft | 197 kts | 30° |
| 2026-05-04 11:34 | 46.54286 | 144.91656 | 15102 ft | 197 kts | 31° |
| 2026-05-04 11:34 | 46.55429 | 144.92749 | 15101 ft | 197 kts | 31° |
| 2026-05-04 11:34 | 46.56577 | 144.93829 | 15102 ft | 196 kts | 31° |
| 2026-05-04 11:34 | 46.57719 | 144.94919 | 15098 ft | 196 kts | 31° |
| 2026-05-04 11:35 | 46.58860 | 144.96004 | 15101 ft | 196 kts | 31° |
| 2026-05-04 11:35 | 46.60001 | 144.97083 | 15101 ft | 195 kts | 31° |
| 2026-05-04 11:35 | 46.61140 | 144.98163 | 15101 ft | 195 kts | 31° |
| 2026-05-04 11:35 | 46.62273 | 144.99248 | 15101 ft | 195 kts | 31° |
| 2026-05-04 11:36 | 46.63409 | 145.00320 | 15101 ft | 195 kts | 31° |
| 2026-05-04 11:36 | 46.64540 | 145.01404 | 15101 ft | 194 kts | 32° |
| 2026-05-04 11:36 | 46.65669 | 145.02484 | 15100 ft | 194 kts | 31° |
| 2026-05-04 11:36 | 46.66801 | 145.03560 | 15101 ft | 194 kts | 31° |
| 2026-05-04 11:37 | 46.67929 | 145.04631 | 15099 ft | 193 kts | 32° |
| 2026-05-04 11:37 | 46.69056 | 145.05705 | 15099 ft | 193 kts | 32° |
| 2026-05-04 11:37 | 46.70172 | 145.06779 | 15098 ft | 192 kts | 32° |
| 2026-05-04 11:37 | 46.71278 | 145.07834 | 15097 ft | 192 kts | 31° |
| 2026-05-04 11:38 | 46.72393 | 145.08898 | 15096 ft | 192 kts | 32° |
| 2026-05-04 11:38 | 46.73502 | 145.09972 | 15096 ft | 191 kts | 32° |
| 2026-05-04 11:38 | 46.74619 | 145.11022 | 15095 ft | 190 kts | 32° |
| 2026-05-04 11:38 | 46.75726 | 145.12079 | 15097 ft | 190 kts | 32° |
| 2026-05-04 11:39 | 46.76828 | 145.13138 | 15095 ft | 190 kts | 32° |
| 2026-05-04 11:39 | 46.77853 | 145.14350 | 15094 ft | 190 kts | 43° |
| 2026-05-04 11:40 | 46.83641 | 145.22126 | 15088 ft | 191 kts | 42° |
| 2026-05-04 11:41 | 46.84623 | 145.23439 | 15093 ft | 192 kts | 43° |
| 2026-05-04 11:41 | 46.85605 | 145.24771 | 15094 ft | 193 kts | 43° |
| 2026-05-04 11:41 | 46.86588 | 145.26100 | 15099 ft | 193 kts | 43° |
| 2026-05-04 11:41 | 46.87568 | 145.27414 | 15097 ft | 194 kts | 43° |
| 2026-05-04 11:42 | 46.88563 | 145.28742 | 15098 ft | 194 kts | 43° |
| 2026-05-04 11:42 | 46.89558 | 145.30070 | 15099 ft | 194 kts | 42° |
| 2026-05-04 11:42 | 46.90545 | 145.31411 | 15100 ft | 194 kts | 43° |
| 2026-05-04 11:42 | 46.91531 | 145.32751 | 15099 ft | 193 kts | 43° |
| 2026-05-04 11:43 | 46.92525 | 145.34080 | 15096 ft | 194 kts | 42° |
| 2026-05-04 11:43 | 46.93519 | 145.35409 | 15098 ft | 194 kts | 42° |
| 2026-05-04 11:43 | 46.94511 | 145.36746 | 15102 ft | 194 kts | 44° |
| 2026-05-04 11:43 | 46.95502 | 145.38098 | 15102 ft | 195 kts | 43° |
| 2026-05-04 11:44 | 46.96498 | 145.39445 | 15102 ft | 195 kts | 43° |
| 2026-05-04 11:44 | 46.97498 | 145.40791 | 15104 ft | 195 kts | 43° |
| 2026-05-04 11:44 | 46.98500 | 145.42148 | 15104 ft | 196 kts | 43° |
| 2026-05-04 11:44 | 46.99506 | 145.43501 | 15105 ft | 196 kts | 43° |
| 2026-05-04 11:45 | 47.00510 | 145.44858 | 15104 ft | 196 kts | 43° |
| 2026-05-04 11:45 | 47.01514 | 145.46214 | 15102 ft | 196 kts | 43° |
| 2026-05-04 11:45 | 47.02513 | 145.47580 | 15103 ft | 196 kts | 44° |
| 2026-05-04 11:45 | 47.03515 | 145.48938 | 15101 ft | 196 kts | 43° |
| 2026-05-04 11:46 | 47.04519 | 145.50297 | 15100 ft | 196 kts | 44° |
| 2026-05-04 11:46 | 47.05519 | 145.51659 | 15099 ft | 196 kts | 43° |
| 2026-05-04 11:46 | 47.06521 | 145.53017 | 15098 ft | 196 kts | 44° |
| 2026-05-04 11:46 | 47.07526 | 145.54375 | 15100 ft | 196 kts | 43° |
| 2026-05-04 11:47 | 47.08515 | 145.55723 | 15098 ft | 196 kts | 44° |
| 2026-05-04 11:47 | 47.09520 | 145.57085 | 15098 ft | 197 kts | 43° |
| 2026-05-04 11:47 | 47.10520 | 145.58452 | 15101 ft | 197 kts | 44° |
| 2026-05-04 11:47 | 47.11525 | 145.59821 | 15103 ft | 197 kts | 44° |
| 2026-05-04 11:48 | 47.12533 | 145.61187 | 15102 ft | 197 kts | 44° |
| 2026-05-04 11:48 | 47.13537 | 145.62560 | 15100 ft | 197 kts | 44° |
| 2026-05-04 11:48 | 47.14542 | 145.63932 | 15104 ft | 198 kts | 44° |
| 2026-05-04 11:48 | 47.15553 | 145.65306 | 15099 ft | 198 kts | 44° |
| 2026-05-04 11:49 | 47.16559 | 145.66682 | 15099 ft | 198 kts | 44° |
| 2026-05-04 11:49 | 47.17564 | 145.68058 | 15098 ft | 198 kts | 44° |
| 2026-05-04 11:49 | 47.18574 | 145.69433 | 15100 ft | 198 kts | 44° |
| 2026-05-04 11:49 | 47.19585 | 145.70813 | 15101 ft | 198 kts | 44° |
| 2026-05-04 11:50 | 47.20594 | 145.72200 | 15100 ft | 199 kts | 44° |
| 2026-05-04 11:50 | 47.21606 | 145.73590 | 15100 ft | 199 kts | 44° |
| 2026-05-04 11:50 | 47.22620 | 145.74974 | 15097 ft | 199 kts | 44° |
| 2026-05-04 11:50 | 47.23632 | 145.76358 | 15098 ft | 199 kts | 45° |
| 2026-05-04 11:51 | 47.24631 | 145.77729 | 15098 ft | 199 kts | 44° |
| 2026-05-04 11:51 | 47.25647 | 145.79116 | 15092 ft | 199 kts | 45° |
| 2026-05-04 11:51 | 47.26659 | 145.80502 | 15094 ft | 199 kts | 44° |
| 2026-05-04 11:51 | 47.27668 | 145.81895 | 15089 ft | 199 kts | 45° |
| 2026-05-04 11:52 | 47.28679 | 145.83282 | 15085 ft | 198 kts | 45° |
| 2026-05-04 11:52 | 47.29692 | 145.84665 | 15085 ft | 198 kts | 44° |
| 2026-05-04 11:52 | 47.30695 | 145.86056 | 15084 ft | 198 kts | 46° |
| 2026-05-04 11:52 | 47.31704 | 145.87444 | 15090 ft | 199 kts | 45° |
| 2026-05-04 11:53 | 47.32715 | 145.88837 | 15091 ft | 199 kts | 45° |
| 2026-05-04 11:53 | 47.33731 | 145.90239 | 15088 ft | 200 kts | 46° |
| 2026-05-04 11:53 | 47.34749 | 145.91647 | 15089 ft | 201 kts | 45° |
| 2026-05-04 11:53 | 47.35770 | 145.93047 | 15088 ft | 201 kts | 45° |
| 2026-05-04 11:55 | 47.42929 | 146.02946 | 15090 ft | 202 kts | 45° |
| 2026-05-04 11:55 | 47.43961 | 146.04370 | 15090 ft | 203 kts | 45° |
| 2026-05-04 11:56 | 47.44978 | 146.05778 | 15087 ft | 203 kts | 46° |
| 2026-05-04 11:56 | 47.46012 | 146.07213 | 15090 ft | 204 kts | 45° |
| 2026-05-04 11:56 | 47.47046 | 146.08646 | 15088 ft | 204 kts | 45° |
| 2026-05-04 11:56 | 47.48084 | 146.10085 | 15086 ft | 205 kts | 46° |
| 2026-05-04 11:57 | 47.49118 | 146.11536 | 15088 ft | 205 kts | 46° |
| 2026-05-04 11:57 | 47.50157 | 146.12979 | 15087 ft | 205 kts | 45° |
| 2026-05-04 11:57 | 47.51194 | 146.14415 | 15085 ft | 204 kts | 46° |
| 2026-05-04 11:57 | 47.52230 | 146.15856 | 15084 ft | 204 kts | 45° |
| 2026-05-04 11:58 | 47.53267 | 146.17301 | 15084 ft | 204 kts | 46° |
| 2026-05-04 11:58 | 47.54301 | 146.18741 | 15087 ft | 204 kts | 45° |
| 2026-05-04 11:58 | 47.55337 | 146.20185 | 15088 ft | 204 kts | 46° |
| 2026-05-04 11:58 | 47.56372 | 146.21629 | 15086 ft | 205 kts | 46° |
| 2026-05-04 11:59 | 47.57406 | 146.23074 | 15088 ft | 205 kts | 46° |
| 2026-05-04 11:59 | 47.58434 | 146.24501 | 15091 ft | 205 kts | 45° |
| 2026-05-04 11:59 | 47.59472 | 146.25957 | 15091 ft | 206 kts | 46° |
| 2026-05-04 11:59 | 47.60513 | 146.27415 | 15085 ft | 206 kts | 46° |
| 2026-05-04 12:00 | 47.61553 | 146.28871 | 15091 ft | 205 kts | 46° |
| 2026-05-04 12:00 | 47.62594 | 146.30325 | 15079 ft | 205 kts | 46° |
| 2026-05-04 12:00 | 47.63633 | 146.31782 | 15074 ft | 205 kts | 46° |
| 2026-05-04 12:00 | 47.64672 | 146.33235 | 15072 ft | 205 kts | 47° |
| 2026-05-04 12:01 | 47.65712 | 146.34698 | 15072 ft | 206 kts | 47° |
| 2026-05-04 12:01 | 47.66755 | 146.36162 | 15083 ft | 207 kts | 46° |
| 2026-05-04 12:02 | 47.73025 | 146.44967 | 15075 ft | 206 kts | 46° |
| 2026-05-04 12:03 | 47.74068 | 146.46432 | 15078 ft | 206 kts | 47° |
| 2026-05-04 12:03 | 47.75107 | 146.47904 | 15077 ft | 206 kts | 47° |
| 2026-05-04 12:03 | 47.76144 | 146.49370 | 15077 ft | 205 kts | 47° |
| 2026-05-04 12:03 | 47.77182 | 146.50830 | 15077 ft | 205 kts | 47° |
| 2026-05-04 12:04 | 47.78223 | 146.52292 | 15074 ft | 205 kts | 47° |
| 2026-05-04 12:04 | 47.79244 | 146.53739 | 15077 ft | 205 kts | 47° |
| 2026-05-04 12:04 | 47.80277 | 146.55207 | 15078 ft | 205 kts | 47° |
| 2026-05-04 12:04 | 47.81310 | 146.56669 | 15076 ft | 205 kts | 47° |
| 2026-05-04 12:05 | 47.82350 | 146.58133 | 15077 ft | 205 kts | 47° |
| 2026-05-04 12:05 | 47.83381 | 146.59593 | 15079 ft | 205 kts | 47° |
| 2026-05-04 12:05 | 47.84412 | 146.61059 | 15079 ft | 205 kts | 47° |
| 2026-05-04 12:05 | 47.85446 | 146.62516 | 15086 ft | 205 kts | 47° |
| 2026-05-04 12:06 | 47.86478 | 146.63978 | 15085 ft | 204 kts | 48° |
| 2026-05-04 12:06 | 47.87504 | 146.65446 | 15085 ft | 204 kts | 47° |
| 2026-05-04 12:06 | 47.88537 | 146.66906 | 15080 ft | 204 kts | 47° |
| 2026-05-04 12:06 | 47.89550 | 146.68348 | 15078 ft | 204 kts | 47° |
| 2026-05-04 12:07 | 47.90576 | 146.69810 | 15079 ft | 204 kts | 47° |
| 2026-05-04 12:07 | 47.91606 | 146.71268 | 15082 ft | 204 kts | 47° |
| 2026-05-04 12:07 | 47.92636 | 146.72735 | 15083 ft | 204 kts | 48° |
| 2026-05-04 12:07 | 47.93662 | 146.74200 | 15081 ft | 204 kts | 47° |
| 2026-05-04 12:08 | 47.94677 | 146.75643 | 15082 ft | 204 kts | 48° |
| 2026-05-04 12:08 | 47.95703 | 146.77112 | 15082 ft | 204 kts | 47° |
| 2026-05-04 12:08 | 47.96731 | 146.78578 | 15081 ft | 204 kts | 47° |
| 2026-05-04 12:08 | 47.97760 | 146.80042 | 15078 ft | 204 kts | 48° |
| 2026-05-04 12:09 | 47.98788 | 146.81509 | 15075 ft | 204 kts | 47° |
| 2026-05-04 12:09 | 47.99816 | 146.82979 | 15076 ft | 204 kts | 47° |
| 2026-05-04 12:09 | 48.00841 | 146.84444 | 15079 ft | 204 kts | 47° |
| 2026-05-04 12:09 | 48.01866 | 146.85913 | 15078 ft | 204 kts | 47° |
| 2026-05-04 12:10 | 48.02892 | 146.87381 | 15077 ft | 204 kts | 47° |
| 2026-05-04 12:10 | 48.03921 | 146.88850 | 15078 ft | 204 kts | 47° |
| 2026-05-04 12:10 | 48.04943 | 146.90322 | 15077 ft | 204 kts | 47° |
| 2026-05-04 12:10 | 48.05959 | 146.91770 | 15075 ft | 204 kts | 47° |
| 2026-05-04 12:11 | 48.06988 | 146.93246 | 15076 ft | 204 kts | 47° |
| 2026-05-04 12:11 | 48.08015 | 146.94721 | 15079 ft | 205 kts | 47° |
| 2026-05-04 12:11 | 48.09044 | 146.96201 | 15078 ft | 205 kts | 48° |
| 2026-05-04 12:11 | 48.10074 | 146.97687 | 15077 ft | 206 kts | 47° |
| 2026-05-04 12:12 | 48.10757 | 146.98669 | 15079 ft | 206 kts | 48° |
| 2026-05-04 12:12 | 48.11786 | 147.00158 | 15090 ft | 205 kts | 47° |
| 2026-05-04 12:12 | 48.12820 | 147.01629 | 15091 ft | 205 kts | 48° |
| 2026-05-04 12:12 | 48.13846 | 147.03112 | 15090 ft | 205 kts | 48° |
| 2026-05-04 12:13 | 48.14874 | 147.04593 | 15087 ft | 205 kts | 48° |
| 2026-05-04 12:14 | 48.22062 | 147.14973 | 15077 ft | 205 kts | 47° |
| 2026-05-04 12:15 | 48.23089 | 147.16456 | 15077 ft | 205 kts | 48° |
| 2026-05-04 12:15 | 48.24110 | 147.17948 | 15079 ft | 205 kts | 48° |
| 2026-05-04 12:15 | 48.25134 | 147.19434 | 15080 ft | 205 kts | 47° |
| 2026-05-04 12:15 | 48.26160 | 147.20914 | 15080 ft | 204 kts | 47° |
| 2026-05-04 12:16 | 48.27180 | 147.22392 | 15086 ft | 204 kts | 48° |
| 2026-05-04 12:16 | 48.28198 | 147.23876 | 15086 ft | 204 kts | 47° |
| 2026-05-04 12:16 | 48.29213 | 147.25354 | 15090 ft | 203 kts | 48° |
| 2026-05-04 12:16 | 48.30218 | 147.26823 | 15090 ft | 204 kts | 48° |
| 2026-05-04 12:17 | 48.31239 | 147.28303 | 15089 ft | 204 kts | 47° |
| 2026-05-04 12:17 | 48.32261 | 147.29777 | 15085 ft | 204 kts | 48° |
| 2026-05-04 12:17 | 48.33274 | 147.31266 | 15088 ft | 204 kts | 47° |
| 2026-05-04 12:17 | 48.34293 | 147.32746 | 15089 ft | 204 kts | 47° |
| 2026-05-04 12:18 | 48.35312 | 147.34226 | 15089 ft | 203 kts | 49° |
| 2026-05-04 12:18 | 48.36327 | 147.35714 | 15085 ft | 204 kts | 48° |
| 2026-05-04 12:18 | 48.37334 | 147.37177 | 15085 ft | 203 kts | 49° |
| 2026-05-04 12:18 | 48.38348 | 147.38658 | 15086 ft | 204 kts | 49° |
| 2026-05-04 12:19 | 48.39363 | 147.40152 | 15084 ft | 205 kts | 48° |
| 2026-05-04 12:19 | 48.40385 | 147.41649 | 15090 ft | 205 kts | 48° |
| 2026-05-04 12:19 | 48.41409 | 147.43149 | 15091 ft | 206 kts | 49° |
| 2026-05-04 12:19 | 48.42435 | 147.44653 | 15092 ft | 206 kts | 48° |
| 2026-05-04 12:20 | 48.43466 | 147.46154 | 15097 ft | 206 kts | 48° |
| 2026-05-04 12:20 | 48.44496 | 147.47664 | 15094 ft | 206 kts | 48° |
| 2026-05-04 12:20 | 48.45526 | 147.49168 | 15095 ft | 206 kts | 47° |
| 2026-05-04 12:20 | 48.46560 | 147.50674 | 15098 ft | 206 kts | 49° |
| 2026-05-04 12:21 | 48.47569 | 147.52175 | 15096 ft | 206 kts | 49° |
| 2026-05-04 12:21 | 48.48591 | 147.53692 | 15094 ft | 206 kts | 48° |
| 2026-05-04 12:21 | 48.49625 | 147.55204 | 15095 ft | 206 kts | 47° |
| 2026-05-04 12:21 | 48.50662 | 147.56702 | 15094 ft | 206 kts | 49° |
| 2026-05-04 12:22 | 48.51685 | 147.58220 | 15093 ft | 206 kts | 49° |
| 2026-05-04 12:22 | 48.52711 | 147.59736 | 15093 ft | 206 kts | 49° |
| 2026-05-04 12:22 | 48.53736 | 147.61254 | 15092 ft | 206 kts | 49° |
| 2026-05-04 12:22 | 48.54762 | 147.62763 | 15094 ft | 206 kts | 49° |
| 2026-05-04 12:23 | 48.55787 | 147.64283 | 15097 ft | 206 kts | 49° |
| 2026-05-04 12:23 | 48.56805 | 147.65768 | 15095 ft | 206 kts | 49° |
| 2026-05-04 12:23 | 48.57824 | 147.67284 | 15101 ft | 206 kts | 49° |
| 2026-05-04 12:23 | 48.58841 | 147.68802 | 15095 ft | 206 kts | 49° |
| 2026-05-04 12:24 | 48.59873 | 147.70301 | 15095 ft | 206 kts | 48° |
| 2026-05-04 12:24 | 48.60891 | 147.71816 | 15094 ft | 205 kts | 49° |
| 2026-05-04 12:24 | 48.61910 | 147.73328 | 15096 ft | 205 kts | 49° |
| 2026-05-04 12:24 | 48.62927 | 147.74844 | 15098 ft | 205 kts | 49° |
| 2026-05-04 12:25 | 48.63943 | 147.76361 | 15099 ft | 205 kts | 50° |
| 2026-05-04 12:25 | 48.64969 | 147.77868 | 15095 ft | 205 kts | 49° |
| 2026-05-04 12:25 | 48.65993 | 147.79377 | 15100 ft | 205 kts | 49° |
| 2026-05-04 12:25 | 48.67009 | 147.80893 | 15098 ft | 205 kts | 50° |
| 2026-05-04 12:26 | 48.68026 | 147.82410 | 15097 ft | 205 kts | 49° |
| 2026-05-04 12:26 | 48.69052 | 147.83923 | 15100 ft | 205 kts | 49° |
| 2026-05-04 12:26 | 48.70066 | 147.85438 | 15100 ft | 205 kts | 50° |
| 2026-05-04 12:26 | 48.71083 | 147.86956 | 15100 ft | 205 kts | 50° |
| 2026-05-04 12:27 | 48.72086 | 147.88454 | 15098 ft | 205 kts | 50° |
| 2026-05-04 12:27 | 48.73102 | 147.89971 | 15098 ft | 205 kts | 50° |
| 2026-05-04 12:27 | 48.74121 | 147.91482 | 15101 ft | 205 kts | 49° |
| 2026-05-04 12:27 | 48.75142 | 147.93004 | 15098 ft | 205 kts | 50° |
| 2026-05-04 12:28 | 48.76149 | 147.94529 | 15099 ft | 205 kts | 50° |
| 2026-05-04 12:28 | 48.77174 | 147.96040 | 15097 ft | 205 kts | 50° |
| 2026-05-04 12:28 | 48.78173 | 147.97545 | 15097 ft | 205 kts | 50° |
| 2026-05-04 12:28 | 48.79190 | 147.99067 | 15095 ft | 205 kts | 50° |
| 2026-05-04 12:29 | 48.80211 | 148.00586 | 15096 ft | 206 kts | 50° |
| 2026-05-04 12:29 | 48.81228 | 148.02112 | 15095 ft | 205 kts | 50° |
| 2026-05-04 12:29 | 48.82245 | 148.03638 | 15096 ft | 206 kts | 50° |
| 2026-05-04 12:29 | 48.83264 | 148.05158 | 15093 ft | 206 kts | 50° |
| 2026-05-04 12:30 | 48.84279 | 148.06695 | 15091 ft | 206 kts | 51° |
| 2026-05-04 12:30 | 48.85297 | 148.08228 | 15087 ft | 207 kts | 50° |
| 2026-05-04 12:30 | 48.86322 | 148.09762 | 15089 ft | 207 kts | 50° |
| 2026-05-04 12:30 | 48.87345 | 148.11302 | 15092 ft | 207 kts | 51° |
| 2026-05-04 12:31 | 48.88370 | 148.12834 | 15091 ft | 207 kts | 51° |
| 2026-05-04 12:31 | 48.89388 | 148.14376 | 15091 ft | 207 kts | 51° |
| 2026-05-04 12:31 | 48.90404 | 148.15923 | 15086 ft | 207 kts | 51° |
| 2026-05-04 12:31 | 48.91435 | 148.17450 | 15091 ft | 207 kts | 51° |
| 2026-05-04 12:32 | 48.92456 | 148.19000 | 15093 ft | 207 kts | 51° |
| 2026-05-04 12:32 | 48.94509 | 148.22085 | 15088 ft | 208 kts | 51° |
| 2026-05-04 12:32 | 48.95531 | 148.23638 | 15088 ft | 207 kts | 51° |
| 2026-05-04 12:33 | 48.96554 | 148.25185 | 15091 ft | 208 kts | 51° |
| 2026-05-04 12:33 | 48.97579 | 148.26734 | 15089 ft | 208 kts | 51° |
| 2026-05-04 12:33 | 48.98604 | 148.28292 | 15087 ft | 208 kts | 51° |
| 2026-05-04 12:33 | 48.99622 | 148.29820 | 15088 ft | 208 kts | 51° |
| 2026-05-04 12:34 | 49.00646 | 148.31378 | 15088 ft | 208 kts | 51° |
| 2026-05-04 12:34 | 49.01669 | 148.32942 | 15089 ft | 208 kts | 51° |
| 2026-05-04 12:34 | 49.02697 | 148.34497 | 15090 ft | 208 kts | 51° |
| 2026-05-04 12:34 | 49.03723 | 148.36056 | 15092 ft | 209 kts | 51° |
| 2026-05-04 12:35 | 49.04754 | 148.37617 | 15092 ft | 209 kts | 51° |
| 2026-05-04 12:35 | 49.05782 | 148.39184 | 15085 ft | 209 kts | 51° |
| 2026-05-04 12:35 | 49.06811 | 148.40750 | 15087 ft | 209 kts | 51° |
| 2026-05-04 12:35 | 49.07841 | 148.42316 | 15089 ft | 209 kts | 51° |
| 2026-05-04 12:36 | 49.08871 | 148.43882 | 15090 ft | 209 kts | 51° |
| 2026-05-04 12:36 | 49.09902 | 148.45455 | 15092 ft | 209 kts | 51° |
| 2026-05-04 12:36 | 49.10931 | 148.47024 | 15090 ft | 209 kts | 51° |
| 2026-05-04 12:36 | 49.11960 | 148.48598 | 15093 ft | 209 kts | 51° |
| 2026-05-04 12:37 | 49.12979 | 148.50155 | 15091 ft | 209 kts | 51° |
| 2026-05-04 12:37 | 49.14024 | 148.51742 | 15098 ft | 209 kts | 51° |
| 2026-05-04 12:37 | 49.15038 | 148.53296 | 15097 ft | 209 kts | 52° |
| 2026-05-04 12:37 | 49.16064 | 148.54875 | 15097 ft | 209 kts | 52° |
| 2026-05-04 12:38 | 49.17095 | 148.56448 | 15092 ft | 209 kts | 51° |
| 2026-05-04 12:38 | 49.18126 | 148.58020 | 15094 ft | 209 kts | 52° |
| 2026-05-04 12:38 | 49.19151 | 148.59596 | 15096 ft | 209 kts | 52° |
| 2026-05-04 12:38 | 49.20182 | 148.61177 | 15097 ft | 209 kts | 52° |
| 2026-05-04 12:39 | 49.21211 | 148.62757 | 15098 ft | 209 kts | 52° |
| 2026-05-04 12:39 | 49.22240 | 148.64339 | 15098 ft | 210 kts | 52° |
| 2026-05-04 12:39 | 49.23274 | 148.65923 | 15098 ft | 211 kts | 51° |
| 2026-05-04 12:39 | 49.24314 | 148.67520 | 15100 ft | 212 kts | 52° |
| 2026-05-04 12:40 | 49.25354 | 148.69129 | 15101 ft | 213 kts | 52° |
| 2026-05-04 12:40 | 49.26401 | 148.70739 | 15102 ft | 214 kts | 52° |
| 2026-05-04 12:40 | 49.27452 | 148.72353 | 15105 ft | 214 kts | 52° |
| 2026-05-04 12:40 | 49.28489 | 148.73947 | 15109 ft | 214 kts | 51° |
| 2026-05-04 12:41 | 49.29537 | 148.75561 | 15110 ft | 214 kts | 52° |
| 2026-05-04 12:41 | 49.30577 | 148.77189 | 15107 ft | 214 kts | 52° |
| 2026-05-04 12:41 | 49.31631 | 148.78809 | 15111 ft | 214 kts | 51° |
| 2026-05-04 12:41 | 49.32684 | 148.80426 | 15112 ft | 214 kts | 52° |
| 2026-05-04 12:42 | 49.33734 | 148.82048 | 15109 ft | 214 kts | 52° |
| 2026-05-04 12:42 | 49.34785 | 148.83670 | 15111 ft | 214 kts | 52° |
| 2026-05-04 12:42 | 49.35835 | 148.85293 | 15109 ft | 214 kts | 52° |
| 2026-05-04 12:42 | 49.36878 | 148.86920 | 15106 ft | 214 kts | 52° |
| 2026-05-04 12:43 | 49.37925 | 148.88545 | 15106 ft | 214 kts | 52° |
| 2026-05-04 12:43 | 49.38971 | 148.90171 | 15105 ft | 214 kts | 52° |
| 2026-05-04 12:43 | 49.40019 | 148.91796 | 15107 ft | 215 kts | 52° |
| 2026-05-04 12:43 | 49.41057 | 148.93404 | 15110 ft | 215 kts | 51° |
| 2026-05-04 12:44 | 49.42114 | 148.95028 | 15106 ft | 215 kts | 52° |
| 2026-05-04 12:44 | 49.43162 | 148.96673 | 15108 ft | 215 kts | 52° |
| 2026-05-04 12:44 | 49.44214 | 148.98319 | 15106 ft | 216 kts | 52° |
| 2026-05-04 12:44 | 49.45269 | 148.99960 | 15107 ft | 216 kts | 52° |
| 2026-05-04 12:45 | 49.46332 | 149.01598 | 15107 ft | 216 kts | 52° |
| 2026-05-04 12:45 | 49.47385 | 149.03247 | 15104 ft | 216 kts | 53° |
| 2026-05-04 12:45 | 49.48434 | 149.04898 | 15104 ft | 216 kts | 52° |
| 2026-05-04 12:45 | 49.49490 | 149.06543 | 15106 ft | 216 kts | 52° |
| 2026-05-04 12:46 | 49.50544 | 149.08178 | 15107 ft | 215 kts | 53° |
| 2026-05-04 12:46 | 49.51594 | 149.09835 | 15103 ft | 217 kts | 53° |
| 2026-05-04 12:46 | 49.52660 | 149.11497 | 15107 ft | 219 kts | 52° |
| 2026-05-04 12:46 | 49.53736 | 149.13177 | 15109 ft | 221 kts | 53° |
| 2026-05-04 12:47 | 49.54818 | 149.14868 | 15112 ft | 222 kts | 52° |
| 2026-05-04 12:47 | 49.55889 | 149.16546 | 15115 ft | 223 kts | 52° |
| 2026-05-04 12:47 | 49.56976 | 149.18252 | 15114 ft | 223 kts | 53° |
| 2026-05-04 12:47 | 49.58060 | 149.19970 | 15115 ft | 224 kts | 53° |
| 2026-05-04 12:48 | 49.59149 | 149.21684 | 15117 ft | 224 kts | 52° |
| 2026-05-04 12:48 | 49.60248 | 149.23391 | 15117 ft | 224 kts | 52° |
| 2026-05-04 12:48 | 49.61341 | 149.25107 | 15119 ft | 224 kts | 53° |
| 2026-05-04 12:48 | 49.62428 | 149.26824 | 15117 ft | 224 kts | 53° |
| 2026-05-04 12:49 | 49.63519 | 149.28538 | 15116 ft | 224 kts | 52° |
| 2026-05-04 12:49 | 49.64608 | 149.30256 | 15117 ft | 224 kts | 53° |
| 2026-05-04 12:49 | 49.65697 | 149.31980 | 15118 ft | 224 kts | 53° |
| 2026-05-04 12:49 | 49.66789 | 149.33701 | 15118 ft | 225 kts | 53° |
| 2026-05-04 12:50 | 49.67882 | 149.35424 | 15119 ft | 225 kts | 53° |
| 2026-05-04 12:50 | 49.68977 | 149.37155 | 15117 ft | 225 kts | 53° |
| 2026-05-04 12:50 | 49.70069 | 149.38885 | 15117 ft | 225 kts | 53° |
| 2026-05-04 12:50 | 49.71152 | 149.40593 | 15118 ft | 225 kts | 53° |
| 2026-05-04 12:51 | 49.72256 | 149.42354 | 15117 ft | 225 kts | 53° |
| 2026-05-04 12:51 | 49.73336 | 149.44067 | 15118 ft | 225 kts | 53° |
| 2026-05-04 12:51 | 49.74434 | 149.45795 | 15116 ft | 225 kts | 53° |
| 2026-05-04 12:51 | 49.75528 | 149.47526 | 15115 ft | 224 kts | 53° |
| 2026-05-04 12:52 | 49.76609 | 149.49256 | 15114 ft | 223 kts | 53° |
| 2026-05-04 12:52 | 49.77693 | 149.50977 | 15115 ft | 223 kts | 53° |
| 2026-05-04 12:52 | 49.78777 | 149.52704 | 15115 ft | 223 kts | 53° |
| 2026-05-04 12:52 | 49.79860 | 149.54428 | 15114 ft | 223 kts | 53° |
| 2026-05-04 12:53 | 49.80948 | 149.56154 | 15113 ft | 223 kts | 53° |
| 2026-05-04 12:53 | 49.82030 | 149.57880 | 15118 ft | 223 kts | 53° |
| 2026-05-04 12:53 | 49.83100 | 149.59585 | 15116 ft | 223 kts | 53° |
| 2026-05-04 12:53 | 49.84185 | 149.61316 | 15113 ft | 224 kts | 53° |
| 2026-05-04 12:54 | 49.85267 | 149.63042 | 15118 ft | 223 kts | 53° |
| 2026-05-04 12:54 | 49.86347 | 149.64768 | 15119 ft | 223 kts | 53° |
| 2026-05-04 12:54 | 49.87420 | 149.66497 | 15120 ft | 223 kts | 54° |
| 2026-05-04 12:54 | 49.88497 | 149.68213 | 15115 ft | 222 kts | 53° |
| 2026-05-04 12:55 | 49.89579 | 149.69929 | 15117 ft | 222 kts | 53° |
| 2026-05-04 12:55 | 49.90656 | 149.71650 | 15118 ft | 222 kts | 53° |
| 2026-05-04 12:55 | 49.91724 | 149.73383 | 15119 ft | 222 kts | 54° |
| 2026-05-04 12:55 | 49.92795 | 149.75119 | 15121 ft | 223 kts | 54° |
| 2026-05-04 12:56 | 49.93880 | 149.76847 | 15122 ft | 223 kts | 53° |
| 2026-05-04 12:56 | 49.94961 | 149.78577 | 15121 ft | 223 kts | 53° |
| 2026-05-04 12:56 | 49.96043 | 149.80309 | 15119 ft | 224 kts | 53° |
| 2026-05-04 12:56 | 49.97112 | 149.82022 | 15120 ft | 223 kts | 54° |
| 2026-05-04 12:57 | 49.98188 | 149.83762 | 15122 ft | 223 kts | 54° |
| 2026-05-04 12:57 | 49.99264 | 149.85499 | 15123 ft | 223 kts | 54° |
| 2026-05-04 12:57 | 50.00341 | 149.87238 | 15123 ft | 223 kts | 53° |
| 2026-05-04 12:57 | 50.01417 | 149.88969 | 15123 ft | 223 kts | 53° |
| 2026-05-04 12:58 | 50.02493 | 149.90704 | 15127 ft | 222 kts | 54° |
| 2026-05-04 12:58 | 50.03563 | 149.92440 | 15130 ft | 223 kts | 54° |
| 2026-05-04 12:58 | 50.04641 | 149.94176 | 15127 ft | 223 kts | 53° |
| 2026-05-04 12:58 | 50.05716 | 149.95916 | 15132 ft | 223 kts | 54° |
| 2026-05-04 12:59 | 50.06789 | 149.97660 | 15134 ft | 223 kts | 53° |
| 2026-05-04 12:59 | 50.07865 | 149.99408 | 15138 ft | 223 kts | 54° |
| 2026-05-04 12:59 | 50.08945 | 150.01150 | 15128 ft | 224 kts | 53° |
| 2026-05-04 12:59 | 50.10025 | 150.02898 | 15130 ft | 224 kts | 53° |
| 2026-05-04 13:00 | 50.10740 | 150.04054 | 15127 ft | 224 kts | 53° |
| 2026-05-04 13:00 | 50.12179 | 150.06397 | 15125 ft | 224 kts | 54° |
| 2026-05-04 13:00 | 50.12892 | 150.07552 | 15136 ft | 223 kts | 53° |
| 2026-05-04 13:00 | 50.13966 | 150.09302 | 15131 ft | 223 kts | 54° |
| 2026-05-04 13:01 | 50.15037 | 150.11052 | 15131 ft | 223 kts | 54° |
| 2026-05-04 13:01 | 50.16111 | 150.12801 | 15128 ft | 223 kts | 54° |
| 2026-05-04 13:01 | 50.17541 | 150.15127 | 15138 ft | 224 kts | 54° |
| 2026-05-04 13:01 | 50.18619 | 150.16887 | 15137 ft | 224 kts | 54° |
| 2026-05-04 13:02 | 50.19347 | 150.18082 | 15135 ft | 225 kts | 54° |
| 2026-05-04 13:02 | 50.20413 | 150.19822 | 15136 ft | 225 kts | 54° |
| 2026-05-04 13:02 | 50.21497 | 150.21589 | 15140 ft | 225 kts | 53° |
| 2026-05-04 13:02 | 50.22577 | 150.23353 | 15137 ft | 225 kts | 54° |
| 2026-05-04 13:03 | 50.23655 | 150.25125 | 15139 ft | 225 kts | 54° |
| 2026-05-04 13:03 | 50.24739 | 150.26893 | 15136 ft | 225 kts | 53° |
| 2026-05-04 13:03 | 50.25818 | 150.28658 | 15142 ft | 225 kts | 54° |
| 2026-05-04 13:03 | 50.26897 | 150.30425 | 15141 ft | 225 kts | 54° |
| 2026-05-04 13:04 | 50.27967 | 150.32203 | 15137 ft | 224 kts | 54° |
| 2026-05-04 13:04 | 50.29041 | 150.33972 | 15136 ft | 225 kts | 53° |
| 2026-05-04 13:04 | 50.30128 | 150.35729 | 15138 ft | 225 kts | 54° |
| 2026-05-04 13:04 | 50.31209 | 150.37508 | 15137 ft | 225 kts | 54° |
| 2026-05-04 13:05 | 50.32285 | 150.39289 | 15137 ft | 225 kts | 54° |
| 2026-05-04 13:05 | 50.33365 | 150.41077 | 15136 ft | 226 kts | 53° |
| 2026-05-04 13:05 | 50.34447 | 150.42860 | 15136 ft | 226 kts | 54° |
| 2026-05-04 13:05 | 50.35533 | 150.44647 | 15133 ft | 227 kts | 54° |
| 2026-05-04 13:06 | 50.36620 | 150.46434 | 15138 ft | 226 kts | 54° |
| 2026-05-04 13:06 | 50.37704 | 150.48230 | 15134 ft | 226 kts | 54° |
| 2026-05-04 13:06 | 50.38789 | 150.50026 | 15135 ft | 227 kts | 54° |
| 2026-05-04 13:06 | 50.39875 | 150.51818 | 15140 ft | 227 kts | 54° |
| 2026-05-04 13:07 | 50.40949 | 150.53597 | 15140 ft | 228 kts | 54° |
| 2026-05-04 13:07 | 50.42038 | 150.55404 | 15141 ft | 229 kts | 54° |
| 2026-05-04 13:07 | 50.43134 | 150.57221 | 15146 ft | 230 kts | 54° |
| 2026-05-04 13:07 | 50.44237 | 150.59043 | 15147 ft | 231 kts | 54° |
| 2026-05-04 13:08 | 50.45339 | 150.60874 | 15149 ft | 231 kts | 54° |
| 2026-05-04 13:08 | 50.46442 | 150.62710 | 15149 ft | 231 kts | 54° |
| 2026-05-04 13:08 | 50.47550 | 150.64547 | 15151 ft | 232 kts | 54° |
| 2026-05-04 13:08 | 50.48655 | 150.66389 | 15148 ft | 232 kts | 54° |
| 2026-05-04 13:09 | 50.49762 | 150.68238 | 15152 ft | 232 kts | 54° |
| 2026-05-04 13:09 | 50.50867 | 150.70074 | 15148 ft | 231 kts | 54° |
| 2026-05-04 13:09 | 50.51964 | 150.71902 | 15146 ft | 230 kts | 54° |
| 2026-05-04 13:09 | 50.53056 | 150.73728 | 15144 ft | 229 kts | 54° |
| 2026-05-04 13:10 | 50.54146 | 150.75546 | 15142 ft | 228 kts | 54° |
| 2026-05-04 13:10 | 50.55231 | 150.77361 | 15140 ft | 228 kts | 54° |
| 2026-05-04 13:10 | 50.56317 | 150.79176 | 15140 ft | 228 kts | 54° |
| 2026-05-04 13:10 | 50.57404 | 150.80994 | 15142 ft | 228 kts | 54° |
| 2026-05-04 13:11 | 50.58489 | 150.82814 | 15144 ft | 228 kts | 54° |
| 2026-05-04 13:11 | 50.59578 | 150.84639 | 15146 ft | 229 kts | 54° |
| 2026-05-04 13:11 | 50.60655 | 150.86443 | 15143 ft | 229 kts | 54° |
| 2026-05-04 13:11 | 50.61746 | 150.88274 | 15144 ft | 229 kts | 54° |
| 2026-05-04 13:12 | 50.62838 | 150.90110 | 15147 ft | 229 kts | 54° |
| 2026-05-04 13:12 | 50.63931 | 150.91944 | 15147 ft | 229 kts | 54° |
| 2026-05-04 13:12 | 50.65021 | 150.93778 | 15145 ft | 229 kts | 54° |
| 2026-05-04 13:12 | 50.66108 | 150.95611 | 15145 ft | 229 kts | 54° |
| 2026-05-04 13:13 | 50.67193 | 150.97441 | 15146 ft | 228 kts | 54° |
| 2026-05-04 13:13 | 50.68277 | 150.99267 | 15146 ft | 228 kts | 54° |
| 2026-05-04 13:13 | 50.69350 | 151.01072 | 15150 ft | 228 kts | 54° |
| 2026-05-04 13:13 | 50.70437 | 151.02905 | 15150 ft | 229 kts | 54° |
| 2026-05-04 13:14 | 50.71521 | 151.04739 | 15149 ft | 229 kts | 54° |
| 2026-05-04 13:14 | 50.72606 | 151.06578 | 15148 ft | 229 kts | 54° |
| 2026-05-04 13:14 | 50.73643 | 151.08324 | 15149 ft | 207 kts | 55° |
| 2026-05-04 13:14 | 50.74634 | 151.10007 | 15147 ft | 210 kts | 55° |
| 2026-05-04 13:15 | 50.75627 | 151.11687 | 15150 ft | 208 kts | 55° |
| 2026-05-04 13:15 | 50.76610 | 151.13356 | 15154 ft | 207 kts | 55° |
| 2026-05-04 13:15 | 50.77602 | 151.15041 | 15159 ft | 211 kts | 54° |
| 2026-05-04 13:15 | 50.78596 | 151.16731 | 15163 ft | 214 kts | 54° |
| 2026-05-04 13:16 | 50.79616 | 151.18461 | 15167 ft | 216 kts | 54° |
| 2026-05-04 13:16 | 50.80643 | 151.20196 | 15169 ft | 217 kts | 54° |
| 2026-05-04 13:16 | 50.81668 | 151.21955 | 15176 ft | 218 kts | 54° |
| 2026-05-04 13:16 | 50.82707 | 151.23716 | 15173 ft | 219 kts | 53° |
| 2026-05-04 13:17 | 50.83748 | 151.25478 | 15172 ft | 219 kts | 54° |
| 2026-05-04 13:17 | 50.84777 | 151.27258 | 15171 ft | 220 kts | 54° |
| 2026-05-04 13:17 | 50.85818 | 151.29032 | 15172 ft | 220 kts | 54° |
| 2026-05-04 13:17 | 50.86866 | 151.30801 | 15174 ft | 220 kts | 54° |
| 2026-05-04 13:18 | 50.87905 | 151.32582 | 15170 ft | 220 kts | 54° |
| 2026-05-04 13:18 | 50.88947 | 151.34358 | 15174 ft | 220 kts | 54° |
| 2026-05-04 13:18 | 50.89987 | 151.36138 | 15172 ft | 220 kts | 54° |
| 2026-05-04 13:18 | 50.91012 | 151.37886 | 15172 ft | 219 kts | 54° |
| 2026-05-04 13:19 | 50.92045 | 151.39668 | 15172 ft | 219 kts | 54° |
| 2026-05-04 13:19 | 50.93083 | 151.41445 | 15172 ft | 219 kts | 54° |
| 2026-05-04 13:19 | 50.94117 | 151.43222 | 15168 ft | 220 kts | 54° |
| 2026-05-04 13:19 | 50.95153 | 151.45006 | 15173 ft | 220 kts | 54° |
| 2026-05-04 13:20 | 50.96193 | 151.46787 | 15172 ft | 220 kts | 54° |
| 2026-05-04 13:20 | 50.97236 | 151.48570 | 15170 ft | 220 kts | 54° |
| 2026-05-04 13:20 | 50.98271 | 151.50364 | 15168 ft | 220 kts | 55° |
| 2026-05-04 13:20 | 50.99312 | 151.52151 | 15169 ft | 221 kts | 54° |
| 2026-05-04 13:21 | 51.00358 | 151.53938 | 15168 ft | 221 kts | 54° |
| 2026-05-04 13:21 | 51.01393 | 151.55735 | 15162 ft | 220 kts | 55° |
| 2026-05-04 13:21 | 51.02428 | 151.57529 | 15167 ft | 220 kts | 54° |
| 2026-05-04 13:21 | 51.03468 | 151.59321 | 15162 ft | 220 kts | 54° |
| 2026-05-04 13:22 | 51.04503 | 151.61108 | 15171 ft | 220 kts | 54° |
| 2026-05-04 13:22 | 51.05537 | 151.62898 | 15164 ft | 220 kts | 55° |
| 2026-05-04 13:22 | 51.06560 | 151.64665 | 15167 ft | 220 kts | 54° |
| 2026-05-04 13:22 | 51.07597 | 151.66460 | 15167 ft | 220 kts | 54° |
| 2026-05-04 13:23 | 51.08634 | 151.68260 | 15168 ft | 221 kts | 54° |
| 2026-05-04 13:23 | 51.09674 | 151.70059 | 15167 ft | 221 kts | 54° |
| 2026-05-04 13:23 | 51.10711 | 151.71860 | 15169 ft | 221 kts | 54° |
| 2026-05-04 13:23 | 51.11747 | 151.73660 | 15172 ft | 221 kts | 54° |
| 2026-05-04 13:24 | 51.12789 | 151.75459 | 15171 ft | 221 kts | 54° |
| 2026-05-04 13:24 | 51.13824 | 151.77266 | 15173 ft | 220 kts | 55° |
| 2026-05-04 13:24 | 51.14854 | 151.79068 | 15171 ft | 220 kts | 54° |
| 2026-05-04 13:25 | 51.16923 | 151.82652 | 15171 ft | 219 kts | 54° |
| 2026-05-04 13:25 | 51.17954 | 151.84451 | 15173 ft | 219 kts | 55° |
| 2026-05-04 13:25 | 51.18967 | 151.86230 | 15171 ft | 220 kts | 54° |
| 2026-05-04 13:25 | 51.20000 | 151.88028 | 15169 ft | 220 kts | 54° |
| 2026-05-04 13:26 | 51.21031 | 151.89832 | 15168 ft | 220 kts | 55° |
| 2026-05-04 13:26 | 51.22065 | 151.91643 | 15171 ft | 220 kts | 54° |
| 2026-05-04 13:26 | 51.23099 | 151.93452 | 15173 ft | 220 kts | 55° |
| 2026-05-04 13:26 | 51.24131 | 151.95261 | 15172 ft | 220 kts | 55° |
| 2026-05-04 13:27 | 51.25163 | 151.97071 | 15173 ft | 220 kts | 54° |
| 2026-05-04 13:27 | 51.26195 | 151.98880 | 15172 ft | 220 kts | 54° |
| 2026-05-04 13:27 | 51.27224 | 152.00686 | 15171 ft | 220 kts | 54° |
| 2026-05-04 13:27 | 51.28253 | 152.02492 | 15173 ft | 219 kts | 55° |
| 2026-05-04 13:28 | 51.29281 | 152.04298 | 15172 ft | 219 kts | 55° |
| 2026-05-04 13:28 | 51.30291 | 152.06071 | 15178 ft | 219 kts | 55° |
| 2026-05-04 13:28 | 51.31313 | 152.07879 | 15178 ft | 219 kts | 55° |
| 2026-05-04 13:28 | 51.32337 | 152.09686 | 15176 ft | 220 kts | 55° |
| 2026-05-04 13:29 | 51.33368 | 152.11495 | 15179 ft | 220 kts | 54° |
| 2026-05-04 13:29 | 51.34398 | 152.13311 | 15178 ft | 220 kts | 55° |
| 2026-05-04 13:29 | 51.35429 | 152.15130 | 15179 ft | 220 kts | 55° |
| 2026-05-04 13:29 | 51.36456 | 152.16945 | 15180 ft | 220 kts | 55° |
| 2026-05-04 13:30 | 51.37483 | 152.18760 | 15180 ft | 220 kts | 55° |
| 2026-05-04 13:30 | 51.38509 | 152.20576 | 15183 ft | 220 kts | 55° |
| 2026-05-04 13:30 | 51.39534 | 152.22391 | 15184 ft | 219 kts | 55° |
| 2026-05-04 13:30 | 51.40543 | 152.24181 | 15181 ft | 219 kts | 55° |
| 2026-05-04 13:31 | 51.41565 | 152.25992 | 15183 ft | 219 kts | 55° |
| 2026-05-04 13:31 | 51.42585 | 152.27795 | 15182 ft | 219 kts | 55° |
| 2026-05-04 13:31 | 51.43603 | 152.29610 | 15183 ft | 219 kts | 55° |
| 2026-05-04 13:31 | 51.44627 | 152.31425 | 15184 ft | 219 kts | 55° |
| 2026-05-04 13:32 | 51.45647 | 152.33239 | 15183 ft | 219 kts | 55° |
| 2026-05-04 13:32 | 51.46668 | 152.35060 | 15186 ft | 219 kts | 55° |
| 2026-05-04 13:32 | 51.47692 | 152.36877 | 15183 ft | 220 kts | 55° |
| 2026-05-04 13:32 | 51.48714 | 152.38698 | 15189 ft | 219 kts | 55° |
| 2026-05-04 13:33 | 51.49736 | 152.40523 | 15186 ft | 219 kts | 55° |
| 2026-05-04 13:33 | 51.50742 | 152.42317 | 15187 ft | 219 kts | 55° |
| 2026-05-04 13:33 | 51.51772 | 152.44155 | 15185 ft | 219 kts | 55° |
| 2026-05-04 13:33 | 51.52788 | 152.45969 | 15187 ft | 218 kts | 55° |
| 2026-05-04 13:34 | 51.53801 | 152.47787 | 15186 ft | 218 kts | 55° |
| 2026-05-04 13:34 | 51.54800 | 152.49574 | 15191 ft | 218 kts | 55° |
| 2026-05-04 13:34 | 51.55815 | 152.51389 | 15192 ft | 218 kts | 55° |
| 2026-05-04 13:34 | 51.56828 | 152.53206 | 15193 ft | 219 kts | 56° |
| 2026-05-04 13:35 | 51.57845 | 152.55031 | 15191 ft | 219 kts | 56° |
| 2026-05-04 13:35 | 51.59877 | 152.58679 | 15197 ft | 219 kts | 56° |
| 2026-05-04 13:35 | 51.60895 | 152.60509 | 15196 ft | 219 kts | 56° |
| 2026-05-04 13:36 | 51.61912 | 152.62337 | 15196 ft | 219 kts | 56° |
| 2026-05-04 13:36 | 51.62925 | 152.64161 | 15194 ft | 219 kts | 56° |
| 2026-05-04 13:36 | 51.63939 | 152.65986 | 15196 ft | 218 kts | 56° |
| 2026-05-04 13:36 | 51.64940 | 152.67792 | 15195 ft | 218 kts | 56° |
| 2026-05-04 13:37 | 51.65950 | 152.69614 | 15196 ft | 218 kts | 56° |
| 2026-05-04 13:37 | 51.66959 | 152.71434 | 15194 ft | 218 kts | 56° |
| 2026-05-04 13:37 | 51.67968 | 152.73257 | 15195 ft | 218 kts | 56° |
| 2026-05-04 13:37 | 51.68652 | 152.74493 | 15197 ft | 218 kts | 56° |
| 2026-05-04 13:38 | 51.69990 | 152.76913 | 15194 ft | 219 kts | 56° |
| 2026-05-04 13:38 | 51.70999 | 152.78741 | 15195 ft | 219 kts | 56° |
| 2026-05-04 13:38 | 51.72011 | 152.80572 | 15198 ft | 219 kts | 56° |
| 2026-05-04 13:38 | 51.73020 | 152.82403 | 15199 ft | 219 kts | 56° |
| 2026-05-04 13:39 | 51.74032 | 152.84238 | 15202 ft | 218 kts | 56° |
| 2026-05-04 13:39 | 51.75039 | 152.86068 | 15203 ft | 218 kts | 56° |
| 2026-05-04 13:39 | 51.76049 | 152.87903 | 15201 ft | 218 kts | 56° |
| 2026-05-04 13:39 | 51.77057 | 152.89735 | 15202 ft | 218 kts | 56° |
| 2026-05-04 13:40 | 51.78063 | 152.91566 | 15204 ft | 218 kts | 56° |
| 2026-05-04 13:40 | 51.79067 | 152.93394 | 15202 ft | 218 kts | 56° |
| 2026-05-04 13:40 | 51.80062 | 152.95206 | 15203 ft | 218 kts | 56° |
| 2026-05-04 13:40 | 51.81066 | 152.97039 | 15206 ft | 218 kts | 56° |
| 2026-05-04 13:41 | 51.82073 | 152.98876 | 15204 ft | 218 kts | 56° |
| 2026-05-04 13:41 | 51.83081 | 153.00717 | 15202 ft | 218 kts | 56° |
| 2026-05-04 13:41 | 51.84087 | 153.02555 | 15205 ft | 218 kts | 56° |
| 2026-05-04 13:42 | 51.86099 | 153.06237 | 15203 ft | 218 kts | 56° |
| 2026-05-04 13:42 | 51.87104 | 153.08077 | 15205 ft | 218 kts | 56° |
| 2026-05-04 13:42 | 51.88108 | 153.09917 | 15204 ft | 218 kts | 56° |
| 2026-05-04 13:42 | 51.89109 | 153.11753 | 15206 ft | 218 kts | 56° |
| 2026-05-04 13:43 | 51.90111 | 153.13594 | 15208 ft | 218 kts | 56° |
| 2026-05-04 13:43 | 51.91112 | 153.15431 | 15209 ft | 218 kts | 56° |
| 2026-05-04 13:43 | 51.92103 | 153.17253 | 15213 ft | 218 kts | 56° |
| 2026-05-04 13:43 | 51.93106 | 153.19098 | 15212 ft | 218 kts | 56° |
| 2026-05-04 13:44 | 51.94108 | 153.20944 | 15211 ft | 218 kts | 56° |
| 2026-05-04 13:44 | 51.95109 | 153.22787 | 15212 ft | 218 kts | 56° |
| 2026-05-04 13:44 | 51.96109 | 153.24630 | 15213 ft | 218 kts | 56° |
| 2026-05-04 13:44 | 51.97112 | 153.26482 | 15213 ft | 218 kts | 56° |
| 2026-05-04 13:45 | 51.98111 | 153.28326 | 15212 ft | 217 kts | 56° |
| 2026-05-04 13:45 | 51.99109 | 153.30171 | 15213 ft | 217 kts | 56° |
| 2026-05-04 13:45 | 52.00106 | 153.32012 | 15218 ft | 217 kts | 56° |
| 2026-05-04 13:45 | 52.01090 | 153.33835 | 15217 ft | 217 kts | 56° |
| 2026-05-04 13:46 | 52.02083 | 153.35675 | 15217 ft | 217 kts | 56° |
| 2026-05-04 13:46 | 52.03079 | 153.37519 | 15216 ft | 217 kts | 56° |
| 2026-05-04 13:46 | 52.04075 | 153.39367 | 15216 ft | 217 kts | 56° |
| 2026-05-04 13:46 | 52.05071 | 153.41215 | 15215 ft | 217 kts | 56° |
| 2026-05-04 13:47 | 52.06068 | 153.43067 | 15218 ft | 217 kts | 56° |
| 2026-05-04 13:47 | 52.07063 | 153.44917 | 15219 ft | 217 kts | 56° |
| 2026-05-04 13:47 | 52.08058 | 153.46765 | 15221 ft | 217 kts | 56° |
| 2026-05-04 13:47 | 52.09053 | 153.48619 | 15219 ft | 217 kts | 56° |
| 2026-05-04 13:48 | 52.10045 | 153.50469 | 15219 ft | 217 kts | 56° |
| 2026-05-04 13:48 | 52.11039 | 153.52322 | 15220 ft | 217 kts | 56° |
| 2026-05-04 13:48 | 52.12034 | 153.54178 | 15222 ft | 217 kts | 56° |
| 2026-05-04 13:48 | 52.13027 | 153.56032 | 15219 ft | 217 kts | 56° |
| 2026-05-04 13:49 | 52.14007 | 153.57864 | 15221 ft | 217 kts | 56° |
| 2026-05-04 13:49 | 52.14998 | 153.59715 | 15220 ft | 217 kts | 56° |
| 2026-05-04 13:49 | 52.15990 | 153.61571 | 15224 ft | 217 kts | 56° |
| 2026-05-04 13:49 | 52.16981 | 153.63428 | 15227 ft | 217 kts | 57° |
| 2026-05-04 13:50 | 52.17974 | 153.65288 | 15225 ft | 217 kts | 56° |
| 2026-05-04 13:50 | 52.18943 | 153.67166 | 15230 ft | 214 kts | 63° |
| 2026-05-04 13:50 | 52.19566 | 153.69297 | 15231 ft | 206 kts | 79° |
| 2026-05-04 13:50 | 52.20105 | 153.71463 | 15230 ft | 207 kts | 77° |
| 2026-05-04 13:51 | 52.20667 | 153.73618 | 15230 ft | 207 kts | 77° |
| 2026-05-04 13:51 | 52.21221 | 153.75779 | 15229 ft | 206 kts | 77° |
| 2026-05-04 13:51 | 52.21769 | 153.77939 | 15234 ft | 206 kts | 77° |
| 2026-05-04 13:51 | 52.22317 | 153.80093 | 15234 ft | 206 kts | 77° |
| 2026-05-04 13:52 | 52.23228 | 153.83679 | 15236 ft | 205 kts | 77° |
| 2026-05-04 13:52 | 52.23953 | 153.86537 | 15236 ft | 206 kts | 77° |
| 2026-05-04 13:52 | 52.24501 | 153.88696 | 15237 ft | 206 kts | 77° |
| 2026-05-04 13:53 | 52.25047 | 153.90854 | 15241 ft | 206 kts | 77° |
| 2026-05-04 13:53 | 52.25594 | 153.93015 | 15235 ft | 206 kts | 77° |
| 2026-05-04 13:53 | 52.26140 | 153.95177 | 15236 ft | 206 kts | 77° |
| 2026-05-04 13:54 | 52.27054 | 153.98796 | 15239 ft | 206 kts | 77° |
| 2026-05-04 13:54 | 52.27598 | 154.00955 | 15239 ft | 206 kts | 77° |
| 2026-05-04 13:54 | 52.28679 | 154.05249 | 15244 ft | 206 kts | 77° |
| 2026-05-04 13:55 | 52.29229 | 154.07439 | 15240 ft | 206 kts | 77° |
| 2026-05-04 13:55 | 52.30308 | 154.11740 | 15242 ft | 206 kts | 78° |
| 2026-05-04 13:55 | 52.30852 | 154.13909 | 15241 ft | 206 kts | 78° |
| 2026-05-04 13:56 | 52.31396 | 154.16081 | 15236 ft | 206 kts | 78° |
| 2026-05-04 13:56 | 52.31938 | 154.18250 | 15238 ft | 206 kts | 78° |
| 2026-05-04 13:56 | 52.33022 | 154.22590 | 15248 ft | 206 kts | 78° |
| 2026-05-04 13:57 | 52.33564 | 154.24763 | 15250 ft | 206 kts | 78° |
| 2026-05-04 13:57 | 52.34105 | 154.26934 | 15247 ft | 206 kts | 78° |
| 2026-05-04 13:58 | 52.35725 | 154.33448 | 15244 ft | 205 kts | 78° |
| 2026-05-04 13:58 | 52.36793 | 154.37754 | 15243 ft | 206 kts | 78° |
| 2026-05-04 13:58 | 52.37331 | 154.39926 | 15246 ft | 206 kts | 78° |
| 2026-05-04 13:59 | 52.37868 | 154.42099 | 15250 ft | 206 kts | 78° |
| 2026-05-04 13:59 | 52.38406 | 154.44274 | 15246 ft | 206 kts | 78° |
| 2026-05-04 13:59 | 52.39479 | 154.48621 | 15250 ft | 206 kts | 78° |
| 2026-05-04 14:00 | 52.40015 | 154.50794 | 15251 ft | 206 kts | 78° |
| 2026-05-04 14:00 | 52.41086 | 154.55146 | 15250 ft | 206 kts | 78° |
| 2026-05-04 14:00 | 52.41620 | 154.57319 | 15247 ft | 206 kts | 78° |
| 2026-05-04 14:01 | 52.42153 | 154.59493 | 15250 ft | 206 kts | 78° |
| 2026-05-04 14:01 | 52.42687 | 154.61671 | 15251 ft | 206 kts | 78° |
| 2026-05-04 14:01 | 52.43753 | 154.66023 | 15253 ft | 206 kts | 78° |
| 2026-05-04 14:02 | 52.44286 | 154.68202 | 15252 ft | 206 kts | 78° |
| 2026-05-04 14:02 | 52.44817 | 154.70376 | 15251 ft | 206 kts | 78° |
| 2026-05-04 14:02 | 52.45349 | 154.72557 | 15252 ft | 206 kts | 78° |
| 2026-05-04 14:02 | 52.45881 | 154.74738 | 15249 ft | 206 kts | 78° |
| 2026-05-04 14:03 | 52.46412 | 154.76917 | 15251 ft | 206 kts | 78° |
| 2026-05-04 14:03 | 52.46941 | 154.79094 | 15253 ft | 206 kts | 78° |
| 2026-05-04 14:03 | 52.47471 | 154.81274 | 15249 ft | 206 kts | 79° |
| 2026-05-04 14:03 | 52.47993 | 154.83426 | 15254 ft | 206 kts | 78° |
| 2026-05-04 14:04 | 52.49052 | 154.87790 | 15253 ft | 206 kts | 79° |
| 2026-05-04 14:04 | 52.49580 | 154.89972 | 15253 ft | 206 kts | 79° |
| 2026-05-04 14:04 | 52.50108 | 154.92157 | 15252 ft | 206 kts | 79° |
| 2026-05-04 14:05 | 52.51163 | 154.96526 | 15254 ft | 206 kts | 79° |
| 2026-05-04 14:05 | 52.51690 | 154.98709 | 15256 ft | 205 kts | 79° |
| 2026-05-04 14:05 | 52.52215 | 155.00889 | 15257 ft | 205 kts | 79° |
| 2026-05-04 14:06 | 52.52740 | 155.03069 | 15256 ft | 205 kts | 79° |
| 2026-05-04 14:06 | 52.53264 | 155.05251 | 15258 ft | 205 kts | 79° |
| 2026-05-04 14:06 | 52.53788 | 155.07434 | 15258 ft | 205 kts | 79° |
| 2026-05-04 14:06 | 52.54306 | 155.09593 | 15257 ft | 205 kts | 79° |
| 2026-05-04 14:07 | 52.54829 | 155.11774 | 15259 ft | 205 kts | 79° |
| 2026-05-04 14:07 | 52.55351 | 155.13955 | 15259 ft | 205 kts | 79° |
| 2026-05-04 14:07 | 52.55873 | 155.16138 | 15260 ft | 205 kts | 79° |
| 2026-05-04 14:07 | 52.56394 | 155.18319 | 15263 ft | 205 kts | 79° |
| 2026-05-04 14:08 | 52.56915 | 155.20501 | 15257 ft | 205 kts | 79° |
| 2026-05-04 14:08 | 52.57437 | 155.22689 | 15259 ft | 205 kts | 79° |
| 2026-05-04 14:08 | 52.57957 | 155.24871 | 15259 ft | 205 kts | 79° |
| 2026-05-04 14:08 | 52.58477 | 155.27055 | 15260 ft | 205 kts | 79° |
| 2026-05-04 14:09 | 52.59516 | 155.31427 | 15260 ft | 205 kts | 79° |
| 2026-05-04 14:09 | 52.60034 | 155.33608 | 15257 ft | 205 kts | 79° |
| 2026-05-04 14:10 | 52.61063 | 155.37951 | 15262 ft | 205 kts | 79° |
| 2026-05-04 14:10 | 52.61580 | 155.40137 | 15262 ft | 205 kts | 79° |
| 2026-05-04 14:10 | 52.62095 | 155.42321 | 15259 ft | 205 kts | 79° |
| 2026-05-04 14:10 | 52.62612 | 155.44510 | 15262 ft | 205 kts | 79° |
| 2026-05-04 14:11 | 52.63127 | 155.46693 | 15260 ft | 205 kts | 79° |
| 2026-05-04 14:11 | 52.64159 | 155.51073 | 15263 ft | 205 kts | 79° |
| 2026-05-04 14:11 | 52.64673 | 155.53259 | 15262 ft | 205 kts | 79° |
| 2026-05-04 14:12 | 52.65187 | 155.55449 | 15262 ft | 205 kts | 79° |
| 2026-05-04 14:12 | 52.65701 | 155.57638 | 15261 ft | 205 kts | 79° |
| 2026-05-04 14:12 | 52.66728 | 155.62022 | 15261 ft | 205 kts | 79° |
| 2026-05-04 14:13 | 52.67242 | 155.64217 | 15264 ft | 205 kts | 79° |
| 2026-05-04 14:13 | 52.67753 | 155.66406 | 15262 ft | 205 kts | 79° |
| 2026-05-04 14:13 | 52.68266 | 155.68607 | 15264 ft | 206 kts | 79° |
| 2026-05-04 14:13 | 52.68782 | 155.70821 | 15265 ft | 207 kts | 79° |
| 2026-05-04 14:14 | 52.69294 | 155.73017 | 15264 ft | 208 kts | 79° |
| 2026-05-04 14:14 | 52.70331 | 155.77471 | 15264 ft | 208 kts | 79° |
| 2026-05-04 14:14 | 52.70849 | 155.79706 | 15263 ft | 209 kts | 78° |
| 2026-05-04 14:15 | 52.71886 | 155.84177 | 15265 ft | 209 kts | 79° |
| 2026-05-04 14:15 | 52.72922 | 155.88654 | 15267 ft | 209 kts | 79° |
| 2026-05-04 14:16 | 52.73959 | 155.93143 | 15264 ft | 209 kts | 78° |
| 2026-05-04 14:16 | 52.74476 | 155.95388 | 15268 ft | 209 kts | 78° |
| 2026-05-04 14:17 | 52.75502 | 155.99846 | 15266 ft | 209 kts | 78° |
| 2026-05-04 14:17 | 52.76017 | 156.02088 | 15266 ft | 209 kts | 78° |
| 2026-05-04 14:17 | 52.77049 | 156.06585 | 15261 ft | 209 kts | 78° |
| 2026-05-04 14:18 | 52.77563 | 156.08828 | 15262 ft | 209 kts | 78° |
| 2026-05-04 14:18 | 52.78590 | 156.13320 | 15263 ft | 209 kts | 78° |
| 2026-05-04 14:19 | 52.79614 | 156.17807 | 15262 ft | 209 kts | 78° |
| 2026-05-04 14:19 | 52.80127 | 156.20055 | 15261 ft | 209 kts | 78° |
| 2026-05-04 14:19 | 52.80638 | 156.22301 | 15267 ft | 208 kts | 78° |
| 2026-05-04 14:19 | 52.81148 | 156.24548 | 15259 ft | 209 kts | 78° |
| 2026-05-04 14:20 | 52.81656 | 156.26800 | 15263 ft | 208 kts | 80° |
| 2026-05-04 14:20 | 52.82042 | 156.29043 | 15260 ft | 205 kts | 84° |
| 2026-05-04 14:20 | 52.82431 | 156.31326 | 15273 ft | 206 kts | 83° |
| 2026-05-04 14:21 | 52.83219 | 156.35882 | 15256 ft | 206 kts | 83° |
| 2026-05-04 14:21 | 52.83610 | 156.38159 | 15268 ft | 206 kts | 83° |
| 2026-05-04 14:21 | 52.84000 | 156.40438 | 15260 ft | 206 kts | 83° |
| 2026-05-04 14:21 | 52.84389 | 156.42717 | 15263 ft | 206 kts | 83° |
| 2026-05-04 14:22 | 52.84778 | 156.44994 | 15268 ft | 206 kts | 83° |
| 2026-05-04 14:22 | 52.85168 | 156.47274 | 15267 ft | 206 kts | 83° |
| 2026-05-04 14:22 | 52.85556 | 156.49551 | 15269 ft | 205 kts | 83° |
| 2026-05-04 14:22 | 52.85938 | 156.51798 | 15268 ft | 205 kts | 83° |
| 2026-05-04 14:23 | 52.86712 | 156.56352 | 15270 ft | 205 kts | 83° |
| 2026-05-04 14:23 | 52.87098 | 156.58631 | 15267 ft | 206 kts | 83° |
| 2026-05-04 14:23 | 52.87483 | 156.60910 | 15266 ft | 205 kts | 83° |
| 2026-05-04 14:24 | 52.87868 | 156.63187 | 15268 ft | 205 kts | 83° |
| 2026-05-04 14:24 | 52.88253 | 156.65464 | 15270 ft | 205 kts | 83° |
| 2026-05-04 14:24 | 52.88636 | 156.67737 | 15269 ft | 205 kts | 83° |
| 2026-05-04 14:24 | 52.89019 | 156.70009 | 15272 ft | 205 kts | 83° |
| 2026-05-04 14:25 | 52.89401 | 156.72284 | 15269 ft | 205 kts | 83° |
| 2026-05-04 14:25 | 52.90166 | 156.76838 | 15272 ft | 205 kts | 83° |
| 2026-05-04 14:25 | 52.90543 | 156.79092 | 15235 ft | 206 kts | 83° |
| 2026-05-04 14:26 | 52.90927 | 156.81396 | 15175 ft | 208 kts | 83° |
| 2026-05-04 14:26 | 52.91315 | 156.83718 | 15100 ft | 209 kts | 83° |
| 2026-05-04 14:26 | 52.91703 | 156.86037 | 15026 ft | 209 kts | 83° |
| 2026-05-04 14:26 | 52.92087 | 156.88340 | 14956 ft | 206 kts | 83° |
| 2026-05-04 14:27 | 52.92466 | 156.90620 | 14877 ft | 205 kts | 83° |
| 2026-05-04 14:27 | 52.92843 | 156.92890 | 14801 ft | 204 kts | 83° |
| 2026-05-04 14:27 | 52.93219 | 156.95154 | 14719 ft | 203 kts | 83° |
| 2026-05-04 14:27 | 52.93592 | 156.97408 | 14654 ft | 202 kts | 83° |
| 2026-05-04 14:28 | 52.93964 | 156.99654 | 14577 ft | 202 kts | 83° |
| 2026-05-04 14:28 | 52.94336 | 157.01903 | 14505 ft | 202 kts | 83° |
| 2026-05-04 14:28 | 52.94708 | 157.04153 | 14431 ft | 202 kts | 83° |
| 2026-05-04 14:28 | 52.95078 | 157.06400 | 14362 ft | 202 kts | 83° |
| 2026-05-04 14:29 | 52.95818 | 157.10894 | 14213 ft | 202 kts | 83° |
| 2026-05-04 14:29 | 52.96555 | 157.15388 | 14078 ft | 202 kts | 83° |
| 2026-05-04 14:30 | 52.96923 | 157.17636 | 14006 ft | 202 kts | 83° |
| 2026-05-04 14:30 | 52.97292 | 157.19891 | 13941 ft | 203 kts | 83° |
| 2026-05-04 14:30 | 52.98026 | 157.24383 | 13796 ft | 203 kts | 83° |
| 2026-05-04 14:31 | 52.98399 | 157.26669 | 13728 ft | 202 kts | 83° |
| 2026-05-04 14:31 | 52.99125 | 157.31142 | 13584 ft | 202 kts | 83° |
| 2026-05-04 14:32 | 52.99853 | 157.35635 | 13436 ft | 202 kts | 83° |
| 2026-05-04 14:32 | 53.00220 | 157.37889 | 13359 ft | 202 kts | 82° |
| 2026-05-04 14:32 | 53.00585 | 157.40147 | 13278 ft | 202 kts | 83° |
| 2026-05-04 14:32 | 53.00949 | 157.42409 | 13194 ft | 202 kts | 83° |
| 2026-05-04 14:33 | 53.01315 | 157.44662 | 13115 ft | 202 kts | 83° |
| 2026-05-04 14:33 | 53.01677 | 157.46919 | 13041 ft | 203 kts | 83° |
| 2026-05-04 14:33 | 53.02038 | 157.49183 | 12966 ft | 203 kts | 83° |
| 2026-05-04 14:33 | 53.02404 | 157.51449 | 12889 ft | 203 kts | 83° |
| 2026-05-04 14:34 | 53.02769 | 157.53712 | 12798 ft | 202 kts | 83° |
| 2026-05-04 14:34 | 53.03128 | 157.55955 | 12732 ft | 200 kts | 83° |
| 2026-05-04 14:34 | 53.03486 | 157.58197 | 12651 ft | 201 kts | 83° |
| 2026-05-04 14:34 | 53.03976 | 157.60391 | 12580 ft | 208 kts | 64° |
| 2026-05-04 14:35 | 53.04976 | 157.62171 | 12498 ft | 215 kts | 41° |
| 2026-05-04 14:35 | 53.06180 | 157.63659 | 12420 ft | 216 kts | 40° |
| 2026-05-04 14:35 | 53.07377 | 157.65174 | 12339 ft | 215 kts | 41° |
| 2026-05-04 14:35 | 53.08559 | 157.66687 | 12257 ft | 214 kts | 41° |
| 2026-05-04 14:36 | 53.09735 | 157.68183 | 12184 ft | 212 kts | 41° |
| 2026-05-04 14:36 | 53.10903 | 157.69668 | 12104 ft | 211 kts | 41° |
| 2026-05-04 14:36 | 53.12066 | 157.71150 | 12032 ft | 209 kts | 41° |
| 2026-05-04 14:36 | 53.13216 | 157.72615 | 11952 ft | 207 kts | 41° |
| 2026-05-04 14:37 | 53.14337 | 157.74047 | 11880 ft | 205 kts | 41° |
| 2026-05-04 14:37 | 53.15470 | 157.75494 | 11820 ft | 204 kts | 41° |
| 2026-05-04 14:37 | 53.16596 | 157.76931 | 11696 ft | 207 kts | 41° |
| 2026-05-04 14:37 | 53.17755 | 157.78417 | 11454 ft | 213 kts | 41° |
| 2026-05-04 14:38 | 53.18937 | 157.79928 | 11213 ft | 216 kts | 41° |
| 2026-05-04 14:38 | 53.20134 | 157.81457 | 10963 ft | 217 kts | 41° |
| 2026-05-04 14:38 | 53.21329 | 157.82984 | 10721 ft | 217 kts | 41° |
| 2026-05-04 14:38 | 53.22525 | 157.84512 | 10482 ft | 215 kts | 41° |
| 2026-05-04 14:39 | 53.23705 | 157.86029 | 10249 ft | 210 kts | 41° |
| 2026-05-04 14:39 | 53.24818 | 157.87473 | 9994 ft | 197 kts | 42° |
| 2026-05-04 14:39 | 53.25886 | 157.88850 | 9750 ft | 192 kts | 41° |
| 2026-05-04 14:40 | 53.27956 | 157.91494 | 9194 ft | 183 kts | 43° |
| 2026-05-04 14:40 | 53.28961 | 157.92785 | 8926 ft | 181 kts | 44° |
| 2026-05-04 14:40 | 53.29949 | 157.94059 | 8655 ft | 178 kts | 44° |
| 2026-05-04 14:40 | 53.30920 | 157.95314 | 8388 ft | 175 kts | 44° |
| 2026-05-04 14:41 | 53.31882 | 157.96555 | 8128 ft | 174 kts | 45° |
| 2026-05-04 14:41 | 53.32840 | 157.97792 | 7864 ft | 173 kts | 45° |
| 2026-05-04 14:41 | 53.34384 | 157.99776 | 7711 ft | 161 kts | 45° |
| 2026-05-04 14:42 | 53.36083 | 158.01963 | 7698 ft | 149 kts | 46° |
| 2026-05-04 14:42 | 53.36891 | 158.03006 | 7704 ft | 146 kts | 46° |
| 2026-05-04 14:42 | 53.37694 | 158.04051 | 7700 ft | 146 kts | 46° |
| 2026-05-04 14:43 | 53.38495 | 158.05085 | 7706 ft | 144 kts | 46° |
| 2026-05-04 14:43 | 53.39286 | 158.06113 | 7709 ft | 144 kts | 46° |
| 2026-05-04 14:43 | 53.40082 | 158.07153 | 7709 ft | 145 kts | 46° |
| 2026-05-04 14:43 | 53.40878 | 158.08185 | 7708 ft | 145 kts | 46° |
| 2026-05-04 14:44 | 53.41572 | 158.09338 | 7708 ft | 135 kts | 70° |
| 2026-05-04 14:44 | 53.41825 | 158.10786 | 7710 ft | 126 kts | 95° |
| 2026-05-04 14:44 | 53.41854 | 158.12250 | 7661 ft | 130 kts | 95° |
| 2026-05-04 14:44 | 53.41896 | 158.13839 | 7407 ft | 140 kts | 95° |
| 2026-05-04 14:45 | 53.41935 | 158.15443 | 7083 ft | 136 kts | 95° |
| 2026-05-04 14:45 | 53.41981 | 158.17001 | 6761 ft | 132 kts | 94° |
| 2026-05-04 14:45 | 53.42029 | 158.18525 | 6441 ft | 130 kts | 94° |
| 2026-05-04 14:45 | 53.42075 | 158.20016 | 6107 ft | 127 kts | 94° |
| 2026-05-04 14:46 | 53.42117 | 158.21490 | 5757 ft | 124 kts | 92° |
| 2026-05-04 14:46 | 53.42158 | 158.22890 | 5399 ft | 117 kts | 92° |
| 2026-05-04 14:46 | 53.42193 | 158.24228 | 5048 ft | 113 kts | 91° |
| 2026-05-04 14:46 | 53.42211 | 158.25543 | 4699 ft | 112 kts | 91° |
| 2026-05-04 14:47 | 53.42138 | 158.26817 | 4344 ft | 110 kts | 116° |
| 2026-05-04 14:47 | 53.41626 | 158.27558 | 4318 ft | 90 kts | 145° |
| 2026-05-04 14:47 | 53.41111 | 158.27996 | 4306 ft | 76 kts | 144° |
| 2026-05-04 14:47 | 53.40662 | 158.28393 | 4301 ft | 72 kts | 144° |
| 2026-05-04 14:48 | 53.40216 | 158.28752 | 4310 ft | 69 kts | 144° |
| 2026-05-04 14:48 | 53.39784 | 158.29091 | 4302 ft | 72 kts | 144° |
| 2026-05-04 14:48 | 53.39293 | 158.29459 | 4300 ft | 81 kts | 146° |
| 2026-05-04 14:48 | 53.38737 | 158.29864 | 4204 ft | 93 kts | 150° |
| 2026-05-04 14:49 | 53.38108 | 158.30301 | 4082 ft | 102 kts | 150° |
| 2026-05-04 14:49 | 53.37442 | 158.30767 | 3945 ft | 106 kts | 150° |
| 2026-05-04 14:49 | 53.36764 | 158.31245 | 3807 ft | 108 kts | 151° |
| 2026-05-04 14:49 | 53.36063 | 158.31737 | 3667 ft | 110 kts | 151° |
| 2026-05-04 14:50 | 53.35355 | 158.32235 | 3526 ft | 111 kts | 152° |
| 2026-05-04 14:50 | 53.34648 | 158.32728 | 3384 ft | 110 kts | 152° |
| 2026-05-04 14:50 | 53.33952 | 158.33211 | 3253 ft | 107 kts | 152° |
| 2026-05-04 14:50 | 53.33271 | 158.33684 | 3114 ft | 106 kts | 153° |
| 2026-05-04 14:51 | 53.32598 | 158.34162 | 2986 ft | 105 kts | 152° |
| 2026-05-04 14:51 | 53.31928 | 158.34627 | 2846 ft | 104 kts | 152° |
| 2026-05-04 14:51 | 53.31269 | 158.35086 | 2717 ft | 102 kts | 152° |
| 2026-05-04 14:51 | 53.30614 | 158.35545 | 2593 ft | 101 kts | 151° |
| 2026-05-04 14:52 | 53.29966 | 158.36000 | 2461 ft | 101 kts | 152° |
| 2026-05-04 14:52 | 53.29314 | 158.36456 | 2324 ft | 102 kts | 153° |
| 2026-05-04 14:52 | 53.28663 | 158.36910 | 2177 ft | 101 kts | 153° |
| 2026-05-04 14:52 | 53.28020 | 158.37363 | 2034 ft | 100 kts | 154° |
| 2026-05-04 14:53 | 53.27375 | 158.37810 | 1893 ft | 100 kts | 157° |
| 2026-05-04 14:53 | 53.26736 | 158.38255 | 1754 ft | 99 kts | 157° |
| 2026-05-04 14:53 | 53.26101 | 158.38704 | 1619 ft | 98 kts | 158° |
| 2026-05-04 14:53 | 53.25473 | 158.39129 | 1481 ft | 96 kts | 160° |
| 2026-05-04 14:54 | 53.24878 | 158.39545 | 1373 ft | 88 kts | 159° |
| 2026-05-04 14:54 | 53.24336 | 158.39927 | 1269 ft | 82 kts | 160° |
| 2026-05-04 14:54 | 53.23828 | 158.40286 | 1169 ft | 77 kts | 160° |
| 2026-05-04 14:54 | 53.23332 | 158.40632 | 1085 ft | 79 kts | 160° |
| 2026-05-04 14:55 | 53.22808 | 158.40992 | 994 ft | 84 kts | 158° |
| 2026-05-04 14:55 | 53.22263 | 158.41375 | 898 ft | 85 kts | 158° |
| 2026-05-04 14:55 | 53.21710 | 158.41753 | 798 ft | 87 kts | 158° |
| 2026-05-04 14:55 | 53.21148 | 158.42148 | 696 ft | 88 kts | 155° |
| 2026-05-04 14:56 | 53.20582 | 158.42541 | 587 ft | 88 kts | 156° |
| 2026-05-04 14:56 | 53.20016 | 158.42938 | 479 ft | 88 kts | 155° |
| 2026-05-04 14:56 | 53.19450 | 158.43326 | 376 ft | 90 kts | 156° |
| 2026-05-04 14:56 | 53.18874 | 158.43720 | 265 ft | 89 kts | 158° |
| 2026-05-04 14:57 | 53.18306 | 158.44114 | 149 ft | 88 kts | 156° |
| 2026-05-04 14:57 | 53.17796 | 158.44468 | 123 ft | 74 kts | 157° |
| 2026-05-04 14:57 | 53.17539 | 158.44663 | 125 ft | 10 kts | 127° |
| 2026-05-04 14:57 | 53.17561 | 158.44629 | 125 ft | 15 kts | 334° |
| 2026-05-04 14:58 | 53.17572 | 158.44490 | 124 ft | 11 kts | 248° |
| 2026-05-04 14:58 | 53.17559 | 158.44436 | 123 ft | 1 kts | 246° |
| 2026-05-04 14:58 | 53.17537 | 158.44352 | 122 ft | 13 kts | 247° |
| 2026-05-04 14:58 | 53.17513 | 158.44252 | 121 ft | 10 kts | 248° |
| 2026-05-04 14:59 | 53.17489 | 158.44154 | 120 ft | 13 kts | 248° |
| 2026-05-04 14:59 | 53.17465 | 158.44061 | 121 ft | 10 kts | 245° |
| 2026-05-04 14:59 | 53.17382 | 158.43817 | 119 ft | 14 kts | 238° |
| 2026-05-04 15:00 | 53.17341 | 158.43698 | 120 ft | 11 kts | 239° |
| 2026-05-04 15:00 | 53.17290 | 158.43555 | 120 ft | 16 kts | 241° |
| 2026-05-04 15:00 | 53.17243 | 158.43418 | 118 ft | 13 kts | 239° |
| 2026-05-04 15:01 | 53.17128 | 158.43099 | 121 ft | 10 kts | 240° |
| 2026-05-04 15:01 | 53.17092 | 158.42989 | 119 ft | 15 kts | 239° |
| 2026-05-04 15:01 | 53.17050 | 158.42867 | 122 ft | 14 kts | 240° |
| 2026-05-04 15:01 | 53.17015 | 158.42738 | 119 ft | 12 kts | 258° |
| 2026-05-04 15:02 | 53.16995 | 158.42642 | 121 ft | 6 kts | 234° |
| 2026-05-04 15:02 | 53.16986 | 158.42616 | 121 ft | 6 kts | 238° |
| 2026-05-04 15:02 | 53.16981 | 158.42604 | 122 ft | 0 kts | 238° |